Terminal Aerodrome Forecast
Issued by NWS Greer, SC

Home | Current Version | Previous Version | Text Only | Print | Product List | Glossary On
Versions: 1 2 3 4 5 6 7 8 9 10 11 12 13 14 15 16 17 18 19 20 21 22 23 24 25 26 27 28 29 30 31 32 33 34 35 36 37 38 39 40 41 42 43
655
FTUS42 KGSP 291735
TAFCLT
TAF
KCLT 291735Z 2918/3018 02010G16KT P6SM VCSH OVC035
      TEMPO 2918/2922 -SHRA OVC025
     FM300200 03007KT P6SM VCSH BKN050
     FM300600 01006KT P6SM VCSH OVC025
     FM301500 02007KT P6SM BKN035 PROB30 3015/3018 4SM -TSRA
      OVC030CB=

USA.gov is the U.S. government's official web portal to all federal, state and local government web resources and services.